createdAt,value
2019-03-30T00:00:38.971Z,0
2019-03-30T00:01:38.681Z,0
2019-03-30T00:02:42.691Z,0
2019-03-30T00:03:38.683Z,0
2019-03-30T00:04:39.182Z,0
2019-03-30T00:05:38.696Z,0
2019-03-30T00:06:38.654Z,0
2019-03-30T00:07:39.185Z,0
2019-03-30T00:08:38.624Z,0
2019-03-30T00:09:39.114Z,0
2019-03-30T00:10:38.651Z,0
2019-03-30T00:11:38.968Z,0
2019-03-30T00:12:39.141Z,0
2019-03-30T00:13:38.607Z,0
2019-03-30T00:14:38.349Z,0
2019-03-30T00:15:38.898Z,0
2019-03-30T00:16:38.345Z,0
2019-03-30T00:17:38.828Z,0
2019-03-30T00:18:41.156Z,0
2019-03-30T00:19:44.786Z,0
2019-03-30T00:20:38.362Z,0
2019-03-30T00:21:38.605Z,0
2019-03-30T00:22:38.581Z,0
2019-03-30T00:23:38.818Z,0
2019-03-30T00:24:38.659Z,0
2019-03-30T00:25:38.882Z,0
2019-03-30T00:26:38.766Z,0
2019-03-30T00:27:38.513Z,0
2019-03-30T00:28:38.498Z,0
2019-03-30T00:29:38.514Z,0
2019-03-30T00:30:38.276Z,0
2019-03-30T00:31:38.491Z,0
2019-03-30T00:32:38.486Z,0
2019-03-30T00:33:38.482Z,0
2019-03-30T00:34:38.194Z,0
2019-03-30T00:35:38.700Z,0
2019-03-30T00:36:38.777Z,0
2019-03-30T00:37:38.961Z,0
2019-03-30T00:38:39.388Z,0
2019-03-30T00:39:38.690Z,0
2019-03-30T00:40:38.473Z,0
2019-03-30T00:41:38.929Z,0
2019-03-30T00:42:38.413Z,0
2019-03-30T00:43:38.400Z,0
2019-03-30T00:44:38.392Z,0
2019-03-30T00:45:38.205Z,0
2019-03-30T00:46:38.208Z,0
2019-03-30T00:47:38.409Z,0
2019-03-30T00:48:39.511Z,0
2019-03-30T00:49:50.673Z,0
2019-03-30T00:50:38.252Z,0
2019-03-30T00:51:38.131Z,0
2019-03-30T00:52:38.876Z,0
2019-03-30T00:53:38.586Z,0
2019-03-30T00:54:38.567Z,0
2019-03-30T00:55:38.659Z,0
2019-03-30T00:56:38.060Z,0
2019-03-30T00:57:38.297Z,0
2019-03-30T00:58:38.306Z,0
2019-03-30T00:59:38.025Z,0
2019-03-30T01:00:38.039Z,0
2019-03-30T01:01:38.267Z,0
2019-03-30T01:02:38.257Z,0
2019-03-30T01:03:38.007Z,0
2019-03-30T01:04:38.014Z,0
2019-03-30T01:05:38.007Z,0
2019-03-30T01:06:38.502Z,0
2019-03-30T01:07:37.728Z,0
2019-03-30T01:08:38.461Z,0
2019-03-30T01:09:38.449Z,0
2019-03-30T01:10:38.758Z,0
2019-03-30T01:11:38.461Z,0
2019-03-30T01:12:38.194Z,0
2019-03-30T01:13:38.181Z,0
2019-03-30T01:14:38.444Z,0
2019-03-30T01:15:37.982Z,0
2019-03-30T01:16:38.472Z,0
2019-03-30T01:17:38.408Z,0
2019-03-30T01:18:37.907Z,0
2019-03-30T01:19:37.939Z,0
2019-03-30T01:20:38.641Z,0
2019-03-30T01:21:38.150Z,0
2019-03-30T01:22:37.880Z,0
2019-03-30T01:23:38.624Z,0
2019-03-30T01:24:37.656Z,0
2019-03-30T01:25:38.350Z,0
2019-03-30T01:26:38.417Z,0
2019-03-30T01:27:38.340Z,0
2019-03-30T01:28:38.357Z,0
2019-03-30T01:29:38.367Z,0
2019-03-30T01:30:38.081Z,0
2019-03-30T01:31:38.320Z,0
2019-03-30T01:32:39.881Z,0
2019-03-30T01:33:38.077Z,0
2019-03-30T01:34:38.032Z,0
2019-03-30T01:35:38.207Z,0
2019-03-30T01:36:38.038Z,0
2019-03-30T01:37:38.522Z,0
2019-03-30T01:38:37.992Z,0
2019-03-30T01:39:38.293Z,0
2019-03-30T01:40:37.837Z,0
2019-03-30T01:41:38.227Z,0
2019-03-30T01:42:37.970Z,0
2019-03-30T01:43:37.981Z,0
2019-03-30T01:44:37.715Z,0
2019-03-30T01:45:38.304Z,0
2019-03-30T01:46:38.199Z,0
2019-03-30T01:47:38.463Z,0
2019-03-30T01:48:37.998Z,0
2019-03-30T01:49:37.921Z,0
2019-03-30T01:50:38.439Z,0
2019-03-30T01:51:38.168Z,0
2019-03-30T01:52:37.675Z,0
2019-03-30T01:53:38.139Z,0
2019-03-30T01:54:37.897Z,0
2019-03-30T01:55:37.650Z,0
2019-03-30T01:56:38.177Z,0
2019-03-30T01:57:37.884Z,0
2019-03-30T01:58:37.666Z,0
2019-03-30T01:59:37.864Z,0
2019-03-30T02:00:37.883Z,0
2019-03-30T02:01:38.077Z,0
2019-03-30T02:02:37.582Z,0
2019-03-30T02:03:37.563Z,0
2019-03-30T02:04:38.054Z,0
2019-03-30T02:05:38.129Z,0
2019-03-30T02:06:37.563Z,0
2019-03-30T02:07:38.029Z,0
2019-03-30T02:08:38.018Z,0
2019-03-30T02:09:38.036Z,0
2019-03-30T02:10:38.285Z,0
2019-03-30T02:11:37.822Z,0
2019-03-30T02:12:37.756Z,0
2019-03-30T02:13:37.749Z,0
2019-03-30T02:14:37.979Z,0
2019-03-30T02:15:37.777Z,0
2019-03-30T02:16:38.230Z,0
2019-03-30T02:17:37.709Z,0
2019-03-30T02:18:37.696Z,0
2019-03-30T02:19:37.729Z,0
2019-03-30T02:20:40.156Z,0
2019-03-30T02:21:37.438Z,0
2019-03-30T02:22:37.677Z,0
2019-03-30T02:23:37.926Z,0
2019-03-30T02:24:37.717Z,0
2019-03-30T02:25:38.177Z,0
2019-03-30T02:26:37.924Z,0
2019-03-30T02:27:37.899Z,0
2019-03-30T02:28:37.873Z,0
2019-03-30T02:29:37.862Z,0
2019-03-30T02:30:38.214Z,0
2019-03-30T02:31:37.922Z,0
2019-03-30T02:32:38.120Z,0
2019-03-30T02:33:37.590Z,0
2019-03-30T02:34:38.096Z,0
2019-03-30T02:35:37.654Z,0
2019-03-30T02:36:37.581Z,0
2019-03-30T02:37:37.593Z,0
2019-03-30T02:38:37.837Z,0
2019-03-30T02:39:37.823Z,0
2019-03-30T02:40:37.836Z,0
2019-03-30T02:41:38.020Z,0
2019-03-30T02:42:37.565Z,0
2019-03-30T02:43:37.793Z,0
2019-03-30T02:44:37.784Z,0
2019-03-30T02:45:38.038Z,0
2019-03-30T02:46:37.998Z,0
2019-03-30T02:47:37.250Z,0
2019-03-30T02:48:37.660Z,0
2019-03-30T02:49:37.724Z,0
2019-03-30T02:50:55.426Z,0
2019-03-30T02:51:37.699Z,0
2019-03-30T02:52:37.987Z,0
2019-03-30T02:53:37.950Z,0
2019-03-30T02:54:37.691Z,0
2019-03-30T02:55:37.678Z,0
2019-03-30T02:56:37.687Z,0
2019-03-30T02:57:37.819Z,0
2019-03-30T02:58:37.935Z,0
2019-03-30T02:59:37.658Z,0
2019-03-30T03:00:37.927Z,0
2019-03-30T03:01:37.622Z,0
2019-03-30T03:02:37.407Z,0
2019-03-30T03:03:37.641Z,0
2019-03-30T03:04:37.629Z,0
2019-03-30T03:05:37.451Z,0
2019-03-30T03:06:37.346Z,0
2019-03-30T03:07:37.588Z,0
2019-03-30T03:08:40.987Z,0
2019-03-30T03:09:37.816Z,0
2019-03-30T03:10:37.826Z,0
2019-03-30T03:11:37.828Z,0
2019-03-30T03:12:37.580Z,0
2019-03-30T03:13:37.530Z,0
2019-03-30T03:14:37.288Z,0
2019-03-30T03:15:37.814Z,0
2019-03-30T03:16:37.250Z,0
2019-03-30T03:17:37.527Z,0
2019-03-30T03:18:37.512Z,0
2019-03-30T03:19:37.305Z,0
2019-03-30T03:20:37.777Z,0
2019-03-30T03:21:37.750Z,0
2019-03-30T03:22:37.468Z,0
2019-03-30T03:23:37.218Z,0
2019-03-30T03:24:37.444Z,0
2019-03-30T03:25:37.529Z,0
2019-03-30T03:26:37.315Z,0
2019-03-30T03:27:37.680Z,0
2019-03-30T03:28:37.682Z,0
2019-03-30T03:29:37.414Z,0
2019-03-30T03:30:38.071Z,0
2019-03-30T03:31:37.693Z,0
2019-03-30T03:32:37.736Z,0
2019-03-30T03:33:37.812Z,0
2019-03-30T03:34:37.428Z,0
2019-03-30T03:35:37.721Z,0
2019-03-30T03:36:37.358Z,0
2019-03-30T03:37:53.870Z,0
2019-03-30T03:38:37.342Z,0
2019-03-30T03:39:37.689Z,0
2019-03-30T03:40:37.634Z,0
2019-03-30T03:41:37.081Z,0
2019-03-30T03:42:37.554Z,0
2019-03-30T03:43:37.295Z,0
2019-03-30T03:44:37.351Z,0
2019-03-30T03:45:37.647Z,0
2019-03-30T03:46:37.530Z,0
2019-03-30T03:47:37.601Z,0
2019-03-30T03:48:37.508Z,0
2019-03-30T03:49:37.422Z,0
2019-03-30T03:50:37.138Z,0
2019-03-30T03:51:37.790Z,0
2019-03-30T03:52:37.792Z,0
2019-03-30T03:53:37.871Z,0
2019-03-30T03:54:37.114Z,0
2019-03-30T03:55:37.546Z,0
2019-03-30T03:56:37.775Z,0
2019-03-30T03:57:37.846Z,0
2019-03-30T03:58:37.137Z,0
2019-03-30T03:59:37.453Z,0
2019-03-30T04:00:37.645Z,0
2019-03-30T04:01:37.390Z,0
2019-03-30T04:02:37.741Z,0
2019-03-30T04:03:37.449Z,0
2019-03-30T04:04:37.826Z,0
2019-03-30T04:05:37.479Z,0
2019-03-30T04:06:37.438Z,0
2019-03-30T04:07:37.803Z,0
2019-03-30T04:08:37.137Z,0
2019-03-30T04:09:37.758Z,0
2019-03-30T04:10:37.471Z,0
2019-03-30T04:11:37.048Z,0
2019-03-30T04:12:37.304Z,0
2019-03-30T04:13:37.094Z,0
2019-03-30T04:14:36.555Z,0
2019-03-30T04:15:37.138Z,0
2019-03-30T04:16:37.257Z,0
2019-03-30T04:17:36.789Z,0
2019-03-30T04:18:37.014Z,0
2019-03-30T04:19:37.248Z,0
2019-03-30T04:20:37.040Z,0
2019-03-30T04:21:52.967Z,0
2019-03-30T04:22:36.701Z,0
2019-03-30T04:23:36.930Z,0
2019-03-30T04:24:36.914Z,0
2019-03-30T04:25:37.286Z,0
2019-03-30T04:26:36.424Z,0
2019-03-30T04:27:37.149Z,0
2019-03-30T04:28:37.123Z,0
2019-03-30T04:29:36.885Z,0
2019-03-30T04:30:37.294Z,0
2019-03-30T04:31:36.742Z,0
2019-03-30T04:32:36.619Z,0
2019-03-30T04:33:37.088Z,0
2019-03-30T04:34:36.335Z,0
2019-03-30T04:35:36.863Z,0
2019-03-30T04:36:36.321Z,0
2019-03-30T04:37:37.100Z,0
2019-03-30T04:38:37.039Z,0
2019-03-30T04:39:36.782Z,0
2019-03-30T04:40:36.829Z,0
2019-03-30T04:41:36.484Z,0
2019-03-30T04:42:36.997Z,0
2019-03-30T04:43:36.978Z,0
2019-03-30T04:44:36.464Z,0
2019-03-30T04:45:36.525Z,0
2019-03-30T04:46:36.708Z,0
2019-03-30T04:47:36.445Z,0
2019-03-30T04:48:38.987Z,0
2019-03-30T04:49:36.940Z,0
2019-03-30T04:50:36.953Z,0
2019-03-30T04:51:36.907Z,0
2019-03-30T04:52:36.620Z,0
2019-03-30T04:53:36.618Z,0
2019-03-30T04:54:36.613Z,0
2019-03-30T04:55:36.382Z,0
2019-03-30T04:56:36.693Z,0
2019-03-30T04:57:36.584Z,0
2019-03-30T04:58:36.409Z,0
2019-03-30T04:59:36.576Z,0
2019-03-30T05:00:36.371Z,0
2019-03-30T05:01:36.289Z,0
2019-03-30T05:02:36.777Z,5
2019-03-30T05:03:36.569Z,5
2019-03-30T05:04:36.756Z,5
2019-03-30T05:05:36.800Z,5
2019-03-30T05:06:36.246Z,5
2019-03-30T05:07:36.245Z,5
2019-03-30T05:08:36.461Z,5
2019-03-30T05:09:36.205Z,10
2019-03-30T05:10:36.273Z,10
2019-03-30T05:11:36.698Z,10
2019-03-30T05:12:35.920Z,10
2019-03-30T05:13:36.430Z,10
2019-03-30T05:14:36.659Z,15
2019-03-30T05:15:36.463Z,15
2019-03-30T05:16:36.403Z,15
2019-03-30T05:17:53.482Z,15
2019-03-30T05:18:36.164Z,15
2019-03-30T05:19:36.681Z,20
2019-03-30T05:20:36.101Z,20
2019-03-30T05:21:36.075Z,20
2019-03-30T05:22:36.095Z,25
2019-03-30T05:23:35.863Z,25
2019-03-30T05:24:36.092Z,25
2019-03-30T05:25:36.299Z,30
2019-03-30T05:26:36.042Z,30
2019-03-30T05:27:36.259Z,30
2019-03-30T05:28:36.524Z,30
2019-03-30T05:29:36.010Z,35
2019-03-30T05:30:36.099Z,35
2019-03-30T05:31:36.008Z,40
2019-03-30T05:32:35.961Z,40
2019-03-30T05:33:36.212Z,45
2019-03-30T05:34:35.972Z,45
2019-03-30T05:35:36.049Z,55
2019-03-30T05:36:35.935Z,60
2019-03-30T05:37:36.163Z,60
2019-03-30T05:38:36.428Z,65
2019-03-30T05:39:36.169Z,65
2019-03-30T05:40:35.894Z,65
2019-03-30T05:41:35.892Z,65
2019-03-30T05:42:36.118Z,65
2019-03-30T05:43:35.617Z,65
2019-03-30T05:44:36.904Z,65
2019-03-30T05:45:36.341Z,70
2019-03-30T05:46:35.382Z,70
2019-03-30T05:47:36.320Z,70
2019-03-30T05:48:36.047Z,70
2019-03-30T05:49:36.061Z,70
2019-03-30T05:50:35.787Z,75
2019-03-30T05:51:36.015Z,75
2019-03-30T05:52:37.844Z,75
2019-03-30T05:53:35.993Z,80
2019-03-30T05:54:35.745Z,80
2019-03-30T05:55:36.054Z,80
2019-03-30T05:56:35.722Z,80
2019-03-30T05:57:35.708Z,85
2019-03-30T05:58:35.958Z,85
2019-03-30T05:59:36.201Z,85
2019-03-30T06:00:35.671Z,90
2019-03-30T06:01:35.917Z,90
2019-03-30T06:02:36.270Z,90
2019-03-30T06:03:36.148Z,90
2019-03-30T06:04:35.648Z,90
2019-03-30T06:05:35.386Z,95
2019-03-30T06:06:35.871Z,95
2019-03-30T06:07:36.146Z,95
2019-03-30T06:08:36.101Z,95
2019-03-30T06:09:36.104Z,95
2019-03-30T06:10:38.576Z,95
2019-03-30T06:11:36.064Z,100
2019-03-30T06:12:35.676Z,100
2019-03-30T06:13:35.570Z,100
2019-03-30T06:14:35.810Z,100
2019-03-30T06:15:35.545Z,100
2019-03-30T06:16:35.028Z,105
2019-03-30T06:17:35.534Z,105
2019-03-30T06:18:35.545Z,105
2019-03-30T06:19:35.261Z,105
2019-03-30T06:20:35.793Z,110
2019-03-30T06:21:35.970Z,110
2019-03-30T06:22:48.713Z,110
2019-03-30T06:23:35.773Z,115
2019-03-30T06:24:35.741Z,115
2019-03-30T06:25:35.761Z,120
2019-03-30T06:26:35.685Z,120
2019-03-30T06:27:35.187Z,120
2019-03-30T06:28:35.917Z,125
2019-03-30T06:29:35.181Z,125
2019-03-30T06:30:36.023Z,135
2019-03-30T06:31:35.640Z,130
2019-03-30T06:32:35.870Z,135
2019-03-30T06:33:35.383Z,135
2019-03-30T06:34:35.627Z,140
2019-03-30T06:35:35.905Z,140
2019-03-30T06:36:35.361Z,150
2019-03-30T06:37:35.611Z,145
2019-03-30T06:38:35.339Z,145
2019-03-30T06:39:36.994Z,145
2019-03-30T06:40:36.438Z,145
2019-03-30T06:41:35.584Z,145
2019-03-30T06:42:35.560Z,145
2019-03-30T06:43:35.368Z,150
2019-03-30T06:44:35.570Z,150
2019-03-30T06:45:35.575Z,150
2019-03-30T06:46:35.531Z,155
2019-03-30T06:47:35.540Z,165
2019-03-30T06:48:38.292Z,180
2019-03-30T06:49:35.517Z,195
2019-03-30T06:50:35.338Z,205
2019-03-30T06:51:35.253Z,215
2019-03-30T06:52:35.490Z,220
2019-03-30T06:53:34.990Z,225
2019-03-30T06:54:35.224Z,225
2019-03-30T06:55:35.251Z,225
2019-03-30T06:56:35.694Z,230
2019-03-30T06:57:35.306Z,230
2019-03-30T06:58:37.718Z,235
2019-03-30T06:59:35.452Z,235
2019-03-30T07:00:35.779Z,235
2019-03-30T07:01:35.486Z,235
2019-03-30T07:02:35.198Z,220
2019-03-30T07:03:35.215Z,210
2019-03-30T07:04:34.940Z,200
2019-03-30T07:05:35.459Z,205
2019-03-30T07:06:35.197Z,210
2019-03-30T07:07:35.199Z,210
2019-03-30T07:08:35.688Z,210
2019-03-30T07:09:34.940Z,220
2019-03-30T07:10:38.258Z,220
2019-03-30T07:11:35.197Z,220
2019-03-30T07:12:35.429Z,210
2019-03-30T07:13:35.444Z,205
2019-03-30T07:14:35.173Z,215
2019-03-30T07:15:35.745Z,220
2019-03-30T07:16:35.441Z,225
2019-03-30T07:17:35.413Z,220
2019-03-30T07:18:35.177Z,230
2019-03-30T07:19:35.431Z,240
2019-03-30T07:20:34.999Z,250
2019-03-30T07:21:35.168Z,255
2019-03-30T07:22:35.167Z,255
2019-03-30T07:23:35.413Z,255
2019-03-30T07:24:35.409Z,255
2019-03-30T07:25:34.716Z,260
2019-03-30T07:26:35.197Z,260
2019-03-30T07:27:35.653Z,260
2019-03-30T07:28:35.159Z,260
2019-03-30T07:29:35.188Z,260
2019-03-30T07:30:35.700Z,265
2019-03-30T07:31:35.412Z,265
2019-03-30T07:32:34.920Z,265
2019-03-30T07:33:35.158Z,265
2019-03-30T07:34:35.416Z,265
2019-03-30T07:35:35.217Z,265
2019-03-30T07:36:35.186Z,270
2019-03-30T07:37:35.658Z,270
2019-03-30T07:38:34.694Z,270
2019-03-30T07:39:35.194Z,270
2019-03-30T07:40:38.379Z,270
2019-03-30T07:41:35.167Z,270
2019-03-30T07:42:34.926Z,275
2019-03-30T07:43:35.663Z,270
2019-03-30T07:44:35.161Z,270
2019-03-30T07:45:35.226Z,270
2019-03-30T07:46:35.179Z,270
2019-03-30T07:47:34.686Z,270
2019-03-30T07:48:35.185Z,275
2019-03-30T07:49:35.458Z,270
2019-03-30T07:50:35.303Z,270
2019-03-30T07:51:37.784Z,270
2019-03-30T07:52:35.712Z,275
2019-03-30T07:53:50.373Z,265
2019-03-30T07:54:35.472Z,265
2019-03-30T07:55:35.254Z,265
2019-03-30T07:56:34.705Z,265
2019-03-30T07:57:35.444Z,265
2019-03-30T07:58:35.705Z,265
2019-03-30T07:59:35.746Z,270
2019-03-30T08:00:40.410Z,270
2019-03-30T08:01:35.227Z,260
2019-03-30T08:02:35.716Z,255
2019-03-30T08:03:35.222Z,255
2019-03-30T08:04:38.292Z,250
2019-03-30T08:05:35.749Z,250
2019-03-30T08:06:35.233Z,250
2019-03-30T08:07:35.794Z,250
2019-03-30T08:08:35.749Z,250
2019-03-30T08:09:37.141Z,250
2019-03-30T08:10:35.097Z,250
2019-03-30T08:11:35.003Z,250
2019-03-30T08:12:35.744Z,260
2019-03-30T08:13:35.010Z,265
2019-03-30T08:14:35.511Z,265
2019-03-30T08:15:35.776Z,265
2019-03-30T08:16:35.291Z,265
2019-03-30T08:17:35.033Z,260
2019-03-30T08:18:35.292Z,260
2019-03-30T08:19:35.525Z,260
2019-03-30T08:20:35.827Z,260
2019-03-30T08:21:35.293Z,245
2019-03-30T08:22:35.780Z,250
2019-03-30T08:23:48.592Z,245
2019-03-30T08:24:36.751Z,245
2019-03-30T08:25:35.906Z,245
2019-03-30T08:26:37.826Z,245
2019-03-30T08:27:35.309Z,245
2019-03-30T08:28:35.841Z,245
2019-03-30T08:29:35.308Z,245
2019-03-30T08:30:35.392Z,250
2019-03-30T08:31:35.585Z,250
2019-03-30T08:32:35.311Z,245
2019-03-30T08:33:35.346Z,250
2019-03-30T08:34:35.553Z,250
2019-03-30T08:35:35.066Z,250
2019-03-30T08:36:35.849Z,245
2019-03-30T08:37:35.603Z,245
2019-03-30T08:38:35.889Z,245
2019-03-30T08:39:35.348Z,245
2019-03-30T08:40:35.936Z,245
2019-03-30T08:41:35.581Z,240
2019-03-30T08:42:35.102Z,240
2019-03-30T08:43:35.130Z,240
2019-03-30T08:44:35.350Z,240
2019-03-30T08:45:35.406Z,240
2019-03-30T08:46:35.355Z,245
2019-03-30T08:47:35.080Z,245
2019-03-30T08:48:35.332Z,245
2019-03-30T08:49:35.319Z,245
2019-03-30T08:50:35.936Z,245
2019-03-30T08:51:35.571Z,245
2019-03-30T08:52:35.336Z,245
2019-03-30T08:53:35.827Z,245
2019-03-30T08:54:35.334Z,245
2019-03-30T08:55:35.672Z,245
2019-03-30T08:56:37.334Z,250
2019-03-30T08:57:35.563Z,250
2019-03-30T08:58:35.069Z,250
2019-03-30T08:59:35.074Z,250
2019-03-30T09:00:35.411Z,250
2019-03-30T09:01:35.571Z,250
2019-03-30T09:02:35.575Z,250
2019-03-30T09:03:38.615Z,250
2019-03-30T09:04:35.575Z,250
2019-03-30T09:05:35.684Z,250
2019-03-30T09:06:35.321Z,250
2019-03-30T09:07:35.864Z,250
2019-03-30T09:08:35.563Z,250
2019-03-30T09:09:35.318Z,255
2019-03-30T09:10:35.885Z,255
2019-03-30T09:11:35.805Z,255
2019-03-30T09:12:35.058Z,255
2019-03-30T09:13:35.809Z,250
2019-03-30T09:14:35.362Z,250
2019-03-30T09:15:35.335Z,250
2019-03-30T09:16:35.043Z,250
2019-03-30T09:17:37.252Z,250
2019-03-30T09:18:35.567Z,250
2019-03-30T09:19:35.300Z,250
2019-03-30T09:20:35.583Z,250
2019-03-30T09:21:34.821Z,250
2019-03-30T09:22:35.529Z,250
2019-03-30T09:23:35.788Z,250
2019-03-30T09:24:35.295Z,250
2019-03-30T09:25:35.561Z,250
2019-03-30T09:26:35.542Z,250
2019-03-30T09:27:35.280Z,250
2019-03-30T09:28:35.279Z,245
2019-03-30T09:29:35.543Z,245
2019-03-30T09:30:35.612Z,245
2019-03-30T09:31:35.036Z,245
2019-03-30T09:32:35.299Z,245
2019-03-30T09:33:35.310Z,245
2019-03-30T09:34:35.794Z,245
2019-03-30T09:35:35.762Z,245
2019-03-30T09:36:36.163Z,245
2019-03-30T09:37:35.296Z,240
2019-03-30T09:38:35.523Z,240
2019-03-30T09:39:35.276Z,240
2019-03-30T09:40:35.776Z,240
2019-03-30T09:41:35.278Z,240
2019-03-30T09:42:35.532Z,240
2019-03-30T09:43:37.478Z,240
2019-03-30T09:44:35.518Z,240
2019-03-30T09:45:35.341Z,240
2019-03-30T09:46:35.279Z,240
2019-03-30T09:47:35.769Z,240
2019-03-30T09:48:35.023Z,240
2019-03-30T09:49:35.782Z,235
2019-03-30T09:50:35.848Z,235
2019-03-30T09:51:35.516Z,235
2019-03-30T09:52:35.541Z,235
2019-03-30T09:53:35.562Z,235
2019-03-30T09:54:35.497Z,235
2019-03-30T09:55:36.933Z,235
2019-03-30T09:56:35.512Z,235
2019-03-30T09:57:35.280Z,235
2019-03-30T09:58:35.256Z,235
2019-03-30T09:59:35.781Z,235
2019-03-30T10:00:35.257Z,235
2019-03-30T10:01:35.530Z,235
2019-03-30T10:02:35.530Z,235
2019-03-30T10:03:35.512Z,235
2019-03-30T10:04:35.508Z,235
2019-03-30T10:05:35.596Z,235
2019-03-30T10:06:43.551Z,235
2019-03-30T10:07:35.526Z,235
2019-03-30T10:08:35.759Z,230
2019-03-30T10:09:35.523Z,235
2019-03-30T10:10:35.264Z,230
2019-03-30T10:11:35.738Z,230
2019-03-30T10:12:35.507Z,230
2019-03-30T10:13:35.302Z,230
2019-03-30T10:14:35.528Z,235
2019-03-30T10:15:35.548Z,230
2019-03-30T10:16:35.503Z,230
2019-03-30T10:17:35.533Z,235
2019-03-30T10:18:35.751Z,230
2019-03-30T10:19:36.953Z,230
2019-03-30T10:20:35.264Z,230
2019-03-30T10:21:34.999Z,230
2019-03-30T10:22:35.781Z,230
2019-03-30T10:23:35.489Z,225
2019-03-30T10:24:47.053Z,225
2019-03-30T10:25:35.548Z,225
2019-03-30T10:26:35.261Z,225
2019-03-30T10:27:35.579Z,225
2019-03-30T10:28:35.265Z,225
2019-03-30T10:29:35.750Z,225
2019-03-30T10:30:35.572Z,225
2019-03-30T10:31:35.257Z,225
2019-03-30T10:32:35.018Z,225
2019-03-30T10:33:35.489Z,225
2019-03-30T10:34:34.751Z,225
2019-03-30T10:35:35.589Z,225
2019-03-30T10:36:35.494Z,225
2019-03-30T10:37:35.749Z,220
2019-03-30T10:38:35.740Z,220
2019-03-30T10:39:35.487Z,220
2019-03-30T10:40:35.603Z,220
2019-03-30T10:41:35.247Z,220
2019-03-30T10:42:35.753Z,220
2019-03-30T10:43:35.482Z,220
2019-03-30T10:44:35.266Z,220
2019-03-30T10:45:35.327Z,220
2019-03-30T10:46:35.243Z,220
2019-03-30T10:47:35.272Z,220
2019-03-30T10:48:35.500Z,220
2019-03-30T10:49:35.514Z,220
2019-03-30T10:50:35.572Z,215
2019-03-30T10:51:35.523Z,215
2019-03-30T10:52:35.268Z,215
2019-03-30T10:53:35.735Z,215
2019-03-30T10:54:35.532Z,220
2019-03-30T10:55:35.291Z,215
2019-03-30T10:56:35.539Z,220
2019-03-30T10:57:35.026Z,215
2019-03-30T10:58:35.516Z,215
2019-03-30T10:59:35.529Z,215
2019-03-30T11:00:35.288Z,215
2019-03-30T11:01:35.503Z,215
2019-03-30T11:02:35.505Z,215
2019-03-30T11:03:35.497Z,215
2019-03-30T11:04:37.568Z,215
2019-03-30T11:05:35.820Z,215
2019-03-30T11:06:35.508Z,215
2019-03-30T11:07:35.756Z,220
2019-03-30T11:08:35.782Z,215
2019-03-30T11:09:35.491Z,215
2019-03-30T11:10:35.767Z,215
2019-03-30T11:11:35.916Z,210
2019-03-30T11:12:35.509Z,215
2019-03-30T11:13:35.784Z,215
2019-03-30T11:14:35.304Z,215
2019-03-30T11:15:38.875Z,215
2019-03-30T11:16:35.297Z,215
2019-03-30T11:17:35.548Z,210
2019-03-30T11:18:35.508Z,210
2019-03-30T11:19:35.271Z,210
2019-03-30T11:20:35.814Z,210
2019-03-30T11:21:35.618Z,210
2019-03-30T11:22:35.552Z,210
2019-03-30T11:23:35.508Z,210
2019-03-30T11:24:35.512Z,210
2019-03-30T11:25:35.341Z,210
2019-03-30T11:26:35.880Z,210
2019-03-30T11:27:35.520Z,210
2019-03-30T11:28:35.275Z,210
2019-03-30T11:29:35.500Z,210
2019-03-30T11:30:35.451Z,205
2019-03-30T11:31:35.045Z,205
2019-03-30T11:32:35.807Z,205
2019-03-30T11:33:35.277Z,205
2019-03-30T11:34:35.084Z,205
2019-03-30T11:35:35.585Z,205
2019-03-30T11:36:35.285Z,205
2019-03-30T11:37:35.088Z,205
2019-03-30T11:38:35.539Z,205
2019-03-30T11:39:35.531Z,205
2019-03-30T11:40:35.621Z,205
2019-03-30T11:41:36.376Z,205
2019-03-30T11:42:35.346Z,210
2019-03-30T11:43:35.143Z,205
2019-03-30T11:44:35.607Z,205
2019-03-30T11:45:35.987Z,205
2019-03-30T11:46:35.188Z,205
2019-03-30T11:47:35.136Z,205
2019-03-30T11:48:37.378Z,205
2019-03-30T11:49:35.253Z,205
2019-03-30T11:50:35.796Z,205
2019-03-30T11:51:35.565Z,205
2019-03-30T11:52:35.631Z,205
2019-03-30T11:53:34.841Z,205
2019-03-30T11:54:35.625Z,205
2019-03-30T11:55:35.875Z,200
2019-03-30T11:56:35.579Z,200
2019-03-30T11:57:35.806Z,200
2019-03-30T11:58:35.577Z,200
2019-03-30T11:59:35.313Z,200
2019-03-30T12:00:35.859Z,200
2019-03-30T12:01:35.835Z,200
2019-03-30T12:02:37.479Z,200
2019-03-30T12:03:34.917Z,200
2019-03-30T12:04:35.576Z,200
2019-03-30T12:05:35.892Z,200
2019-03-30T12:06:35.615Z,200
2019-03-30T12:07:35.644Z,200
2019-03-30T12:08:35.321Z,200
2019-03-30T12:09:35.572Z,200
2019-03-30T12:10:35.520Z,200
2019-03-30T12:11:35.638Z,200
2019-03-30T12:12:37.271Z,200
2019-03-30T12:13:35.303Z,200
2019-03-30T12:14:35.800Z,195
2019-03-30T12:15:35.307Z,195
2019-03-30T12:16:35.698Z,195
2019-03-30T12:17:35.988Z,195
2019-03-30T12:18:35.558Z,195
2019-03-30T12:19:35.317Z,195
2019-03-30T12:20:35.921Z,195
2019-03-30T12:21:35.584Z,195
2019-03-30T12:22:35.559Z,195
2019-03-30T12:23:35.295Z,195
2019-03-30T12:24:35.803Z,195
2019-03-30T12:25:44.770Z,195
2019-03-30T12:26:35.594Z,195
2019-03-30T12:27:35.586Z,195
2019-03-30T12:28:35.803Z,195
2019-03-30T12:29:35.571Z,195
2019-03-30T12:30:35.618Z,195
2019-03-30T12:31:35.814Z,195
2019-03-30T12:32:35.574Z,195
2019-03-30T12:33:35.840Z,195
2019-03-30T12:34:35.909Z,195
2019-03-30T12:35:35.517Z,195
2019-03-30T12:36:35.850Z,195
2019-03-30T12:37:35.332Z,195
2019-03-30T12:38:35.820Z,195
2019-03-30T12:39:35.326Z,195
2019-03-30T12:40:35.602Z,195
2019-03-30T12:41:35.588Z,195
2019-03-30T12:42:35.607Z,195
2019-03-30T12:43:38.840Z,195
2019-03-30T12:44:35.807Z,195
2019-03-30T12:45:35.133Z,190
2019-03-30T12:46:34.834Z,190
2019-03-30T12:47:35.588Z,190
2019-03-30T12:48:35.366Z,190
2019-03-30T12:49:35.839Z,190
2019-03-30T12:50:35.597Z,190
2019-03-30T12:51:35.081Z,190
2019-03-30T12:52:36.192Z,190
2019-03-30T12:53:49.112Z,190
2019-03-30T12:54:35.592Z,190
2019-03-30T12:55:48.286Z,190
2019-03-30T12:56:35.614Z,190
2019-03-30T12:57:35.610Z,190
2019-03-30T12:58:35.589Z,190
2019-03-30T12:59:35.323Z,190
2019-03-30T13:00:35.426Z,190
2019-03-30T13:01:35.644Z,190
2019-03-30T13:02:35.599Z,190
2019-03-30T13:03:35.604Z,190
2019-03-30T13:04:35.417Z,190
2019-03-30T13:05:35.651Z,185
2019-03-30T13:06:35.467Z,185
2019-03-30T13:07:35.788Z,185
2019-03-30T13:08:35.971Z,185
2019-03-30T13:11:37.104Z,185
2019-03-30T13:11:46.617Z,185
2019-03-30T13:12:47.009Z,185
2019-03-30T13:13:46.406Z,185
2019-03-30T13:14:46.766Z,185
2019-03-30T13:15:46.825Z,185
2019-03-30T13:16:47.082Z,180
2019-03-30T13:17:47.107Z,180
2019-03-30T13:18:46.817Z,180
2019-03-30T13:19:47.065Z,180
2019-03-30T13:20:47.261Z,180
2019-03-30T13:22:01.844Z,180
2019-03-30T13:22:46.300Z,180
2019-03-30T13:23:46.867Z,180
2019-03-30T13:24:47.003Z,180
2019-03-30T13:25:46.578Z,180
2019-03-30T13:26:46.860Z,180
2019-03-30T13:27:46.891Z,180
2019-03-30T13:28:46.640Z,180
2019-03-30T13:29:46.817Z,180
2019-03-30T13:30:46.397Z,180
2019-03-30T13:31:46.579Z,175
2019-03-30T13:32:46.088Z,175
2019-03-30T13:33:46.970Z,175
2019-03-30T13:34:46.554Z,175
2019-03-30T13:35:46.783Z,175
2019-03-30T13:36:46.894Z,175
2019-03-30T13:37:46.828Z,175
2019-03-30T13:38:47.250Z,175
2019-03-30T13:39:46.330Z,175
2019-03-30T13:40:46.356Z,175
2019-03-30T13:41:46.832Z,180
2019-03-30T13:42:46.818Z,175
2019-03-30T13:43:46.851Z,175
2019-03-30T13:44:46.336Z,175
2019-03-30T13:45:46.084Z,175
2019-03-30T13:46:46.653Z,175
2019-03-30T13:47:47.089Z,180
2019-03-30T13:48:46.880Z,175
2019-03-30T13:49:46.810Z,175
2019-03-30T13:50:46.628Z,175
2019-03-30T13:51:46.410Z,175
2019-03-30T13:52:46.315Z,180
2019-03-30T13:53:46.592Z,175
2019-03-30T13:54:47.996Z,175
2019-03-30T13:55:46.645Z,175
2019-03-30T13:56:46.400Z,175
2019-03-30T13:57:46.545Z,175
2019-03-30T13:58:46.647Z,175
2019-03-30T13:59:47.065Z,175
2019-03-30T14:00:46.831Z,175
2019-03-30T14:01:46.860Z,175
2019-03-30T14:02:48.656Z,175
2019-03-30T14:03:46.638Z,170
2019-03-30T14:04:46.374Z,170
2019-03-30T14:05:46.879Z,170
2019-03-30T14:06:46.871Z,170
2019-03-30T14:07:47.130Z,170
2019-03-30T14:08:46.876Z,170
2019-03-30T14:09:46.624Z,170
2019-03-30T14:10:48.563Z,175